createdAt,value
2022-08-17T00:00:34.513Z,97.18
2022-08-17T00:01:14.069Z,97.42
2022-08-17T00:02:26.501Z,98.96
2022-08-17T00:03:14.567Z,99.72
2022-08-17T00:04:13.762Z,99.99
2022-08-17T00:05:13.691Z,99.99
2022-08-17T00:06:13.613Z,99.99
2022-08-17T00:07:13.537Z,99.99
2022-08-17T00:08:13.459Z,99.99
2022-08-17T00:09:18.200Z,99.99
2022-08-17T00:10:13.306Z,99.99
2022-08-17T00:11:13.232Z,99.99
2022-08-17T00:12:42.932Z,99.99
2022-08-17T00:13:13.084Z,99.99
2022-08-17T00:14:13.004Z,99.99
2022-08-17T00:15:12.946Z,99.99
2022-08-17T00:16:12.849Z,99.99
2022-08-17T00:17:12.776Z,99.99
2022-08-17T00:19:01.507Z,99.24
2022-08-17T00:19:12.623Z,99.43
2022-08-17T00:20:12.548Z,99.91
2022-08-17T00:21:12.471Z,99.99
2022-08-17T00:22:31.815Z,99.77
2022-08-17T00:23:12.318Z,99.58
2022-08-17T00:24:12.244Z,99.29
2022-08-17T00:25:12.179Z,98.33
2022-08-17T00:26:14.225Z,98.33
2022-08-17T00:27:12.014Z,98.72
2022-08-17T00:28:11.937Z,99.29
2022-08-17T00:29:16.462Z,99.53
2022-08-17T00:30:11.789Z,99.63
2022-08-17T00:31:11.709Z,99.96
2022-08-17T00:33:14.779Z,99.77
2022-08-17T00:33:16.204Z,99.96
2022-08-17T00:34:11.487Z,99.39
2022-08-17T00:35:11.403Z,96.89
2022-08-17T00:36:11.328Z,96.27
2022-08-17T00:37:11.255Z,97.33
2022-08-17T00:38:11.177Z,97.61
2022-08-17T00:39:11.102Z,97.61
2022-08-17T00:40:11.103Z,98.19
2022-08-17T00:41:10.952Z,98.28
2022-08-17T00:42:10.871Z,97.52
2022-08-17T00:43:10.794Z,97.80
2022-08-17T00:44:10.721Z,97.33
2022-08-17T00:45:10.642Z,98.10
2022-08-17T00:46:10.568Z,97.90
2022-08-17T00:47:10.490Z,97.90
2022-08-17T00:48:11.491Z,99.34
2022-08-17T00:49:10.336Z,99.99
2022-08-17T00:50:10.263Z,99.99
2022-08-17T00:51:10.182Z,99.99
2022-08-17T00:52:11.911Z,99.99
2022-08-17T00:53:10.031Z,99.99
2022-08-17T00:54:09.956Z,99.99
2022-08-17T00:55:09.879Z,99.99
2022-08-17T00:56:09.805Z,99.99
2022-08-17T00:57:09.735Z,99.99
2022-08-17T00:58:09.650Z,99.99
2022-08-17T00:59:09.571Z,99.99
2022-08-17T01:00:09.503Z,99.99
2022-08-17T01:01:09.490Z,99.99
2022-08-17T01:02:09.348Z,99.99
2022-08-17T01:03:09.267Z,99.99
2022-08-17T01:04:09.192Z,99.99
2022-08-17T01:05:09.147Z,99.19
2022-08-17T01:06:09.048Z,98.62
2022-08-17T01:07:08.961Z,99.99
2022-08-17T01:08:08.886Z,99.99
2022-08-17T01:09:08.809Z,99.99
2022-08-17T01:10:08.733Z,99.67
2022-08-17T01:11:08.654Z,99.05
2022-08-17T01:12:08.610Z,98.43
2022-08-17T01:13:08.504Z,97.38
2022-08-17T01:14:08.430Z,97.23
2022-08-17T01:15:08.349Z,98.00
2022-08-17T01:16:08.275Z,97.90
2022-08-17T01:17:08.200Z,98.57
2022-08-17T01:18:08.124Z,99.24
2022-08-17T01:19:08.043Z,99.99
2022-08-17T01:20:07.968Z,99.99
2022-08-17T01:21:07.890Z,99.99
2022-08-17T01:22:07.817Z,99.99
2022-08-17T01:23:07.743Z,99.99
2022-08-17T01:24:07.661Z,99.99
2022-08-17T01:25:07.583Z,99.48
2022-08-17T01:26:07.510Z,99.99
2022-08-17T01:27:10.513Z,99.99
2022-08-17T01:28:07.356Z,99.99
2022-08-17T01:29:07.278Z,99.99
2022-08-17T01:30:58.541Z,99.99
2022-08-17T01:31:07.124Z,99.99
2022-08-17T01:32:07.048Z,99.99
2022-08-17T01:33:06.974Z,99.99
2022-08-17T01:34:06.896Z,99.99
2022-08-17T01:35:06.820Z,99.99
2022-08-17T01:36:06.746Z,99.99
2022-08-17T01:37:06.665Z,99.99
2022-08-17T01:38:06.587Z,99.99
2022-08-17T01:39:06.522Z,99.72
2022-08-17T01:40:06.496Z,99.05
2022-08-17T01:41:06.368Z,99.33
2022-08-17T01:42:06.285Z,99.33
2022-08-17T01:43:06.205Z,99.99
2022-08-17T01:44:06.128Z,99.99
2022-08-17T01:45:06.051Z,99.99
2022-08-17T01:46:05.975Z,99.99
2022-08-17T01:47:05.906Z,99.99
2022-08-17T01:48:05.821Z,99.91
2022-08-17T01:49:05.752Z,99.99
2022-08-17T01:50:05.667Z,99.99
2022-08-17T01:51:05.589Z,99.99
2022-08-17T01:52:05.515Z,99.99
2022-08-17T01:53:05.438Z,99.99
2022-08-17T01:54:05.383Z,99.99
2022-08-17T01:55:05.291Z,99.99
2022-08-17T01:56:05.212Z,99.99
2022-08-17T01:57:05.135Z,99.99
2022-08-17T01:58:05.064Z,99.99
2022-08-17T01:59:04.980Z,99.99
2022-08-17T02:00:04.899Z,99.99
2022-08-17T02:01:04.863Z,99.99
2022-08-17T02:02:04.751Z,99.99
2022-08-17T02:03:04.668Z,99.99
2022-08-17T02:04:04.593Z,99.99
2022-08-17T02:05:04.515Z,99.99
2022-08-17T02:06:05.186Z,99.99
2022-08-17T02:07:04.360Z,99.99
2022-08-17T02:08:04.287Z,99.99
2022-08-17T02:09:04.211Z,99.99
2022-08-17T02:10:04.130Z,99.99
2022-08-17T02:11:04.054Z,99.99
2022-08-17T02:12:38.202Z,99.99
2022-08-17T02:13:03.898Z,99.99
2022-08-17T02:14:04.234Z,99.99
2022-08-17T02:15:03.746Z,99.99
2022-08-17T02:16:03.668Z,99.99
2022-08-17T02:17:03.595Z,99.99
2022-08-17T02:18:03.512Z,99.99
2022-08-17T02:19:03.439Z,99.99
2022-08-17T02:20:03.365Z,99.99
2022-08-17T02:21:03.288Z,99.99
2022-08-17T02:22:03.206Z,99.99
2022-08-17T02:23:03.130Z,99.99
2022-08-17T02:24:03.053Z,99.99
2022-08-17T02:25:02.979Z,99.99
2022-08-17T02:26:02.901Z,99.99
2022-08-17T02:27:02.826Z,99.99
2022-08-17T02:28:02.747Z,99.99
2022-08-17T02:29:02.671Z,99.99
2022-08-17T02:30:02.591Z,99.99
2022-08-17T02:31:03.373Z,99.99
2022-08-17T02:32:02.435Z,99.99
2022-08-17T02:33:04.291Z,99.99
2022-08-17T02:34:04.592Z,99.99
2022-08-17T02:35:02.209Z,99.99
2022-08-17T02:36:02.132Z,99.99
2022-08-17T02:37:02.053Z,99.99
2022-08-17T02:38:01.977Z,99.99
2022-08-17T02:39:01.904Z,99.99
2022-08-17T02:40:01.851Z,99.99
2022-08-17T02:41:01.749Z,99.99
2022-08-17T02:42:01.672Z,99.99
2022-08-17T02:43:01.596Z,99.99
2022-08-17T02:44:01.513Z,99.99
2022-08-17T02:45:01.443Z,99.99
2022-08-17T02:46:01.360Z,99.99
2022-08-17T02:47:01.290Z,99.99
2022-08-17T02:48:01.203Z,99.99
2022-08-17T02:49:01.132Z,99.99
2022-08-17T02:50:01.050Z,99.99
2022-08-17T02:51:00.976Z,99.99
2022-08-17T02:52:00.897Z,99.99
2022-08-17T02:53:02.071Z,99.99
2022-08-17T02:54:35.616Z,99.99
2022-08-17T02:55:00.668Z,99.99
2022-08-17T02:56:00.587Z,99.99
2022-08-17T02:57:00.517Z,99.99
2022-08-17T02:58:00.443Z,99.99
2022-08-17T02:59:00.358Z,99.99
2022-08-17T03:00:00.282Z,99.99
2022-08-17T03:01:00.204Z,99.99
2022-08-17T03:02:00.196Z,99.99
2022-08-17T03:03:00.057Z,99.99
2022-08-17T03:03:59.970Z,99.99
2022-08-17T03:04:59.895Z,99.99
2022-08-17T03:05:59.818Z,99.99
2022-08-17T03:06:59.744Z,99.99
2022-08-17T03:07:59.667Z,99.99
2022-08-17T03:08:59.589Z,99.99
2022-08-17T03:09:59.508Z,99.99
2022-08-17T03:10:59.433Z,99.99
2022-08-17T03:11:59.357Z,99.99
2022-08-17T03:12:59.280Z,99.99
2022-08-17T03:13:59.199Z,99.99
2022-08-17T03:14:59.125Z,99.99
2022-08-17T03:15:59.051Z,99.96
2022-08-17T03:16:58.970Z,99.99
2022-08-17T03:17:58.890Z,99.99
2022-08-17T03:18:58.814Z,99.99
2022-08-17T03:19:58.737Z,99.99
2022-08-17T03:20:58.679Z,99.99
2022-08-17T03:21:58.582Z,99.99
2022-08-17T03:23:03.035Z,99.99
2022-08-17T03:23:58.430Z,99.99
2022-08-17T03:24:58.353Z,99.99
2022-08-17T03:25:58.279Z,99.99
2022-08-17T03:26:58.201Z,99.99
2022-08-17T03:27:58.121Z,99.99
2022-08-17T03:28:58.044Z,99.99
2022-08-17T03:29:57.964Z,99.99
2022-08-17T03:30:57.889Z,99.99
2022-08-17T03:31:57.822Z,99.99
2022-08-17T03:32:57.734Z,99.99
2022-08-17T03:33:57.656Z,99.99
2022-08-17T03:34:57.581Z,99.99
2022-08-17T03:35:57.505Z,99.99
2022-08-17T03:36:57.426Z,99.99
2022-08-17T03:38:00.852Z,99.99
2022-08-17T03:38:57.271Z,99.99
2022-08-17T03:39:57.279Z,99.99
2022-08-17T03:40:59.693Z,99.99
2022-08-17T03:41:57.041Z,99.99
2022-08-17T03:42:56.961Z,99.99
2022-08-17T03:43:56.885Z,99.99
2022-08-17T03:44:56.963Z,99.99
2022-08-17T03:45:56.730Z,99.99
2022-08-17T03:46:56.654Z,99.99
2022-08-17T03:47:56.575Z,99.99
2022-08-17T03:48:56.497Z,99.99
2022-08-17T03:49:56.432Z,99.99
2022-08-17T03:50:56.347Z,99.99
2022-08-17T03:51:56.267Z,99.99
2022-08-17T03:52:56.229Z,99.99
2022-08-17T03:53:56.115Z,99.99
2022-08-17T03:54:56.035Z,99.99
2022-08-17T03:55:55.955Z,99.99
2022-08-17T03:56:55.881Z,99.99
2022-08-17T03:57:55.801Z,99.99
2022-08-17T03:58:55.729Z,99.99
2022-08-17T03:59:55.647Z,99.99
2022-08-17T04:00:55.575Z,99.99
2022-08-17T04:01:55.545Z,99.99
2022-08-17T04:02:55.416Z,99.99
2022-08-17T04:03:55.337Z,99.99
2022-08-17T04:04:55.264Z,99.99
2022-08-17T04:05:55.181Z,99.99
2022-08-17T04:06:55.106Z,99.99
2022-08-17T04:07:55.030Z,99.99
2022-08-17T04:08:54.954Z,99.99
2022-08-17T04:09:54.880Z,99.99
2022-08-17T04:10:54.796Z,99.99
2022-08-17T04:11:54.717Z,99.99
2022-08-17T04:12:54.642Z,99.99
2022-08-17T04:13:54.564Z,99.99
2022-08-17T04:14:55.354Z,99.99
2022-08-17T04:15:54.410Z,99.99
2022-08-17T04:16:54.333Z,99.99
2022-08-17T04:17:54.255Z,99.99
2022-08-17T04:18:54.183Z,99.99
2022-08-17T04:19:54.102Z,99.99
2022-08-17T04:20:54.032Z,99.99
2022-08-17T04:21:53.945Z,99.99
2022-08-17T04:22:53.868Z,99.99
2022-08-17T04:23:53.789Z,99.99
2022-08-17T04:24:53.716Z,99.99
2022-08-17T04:25:53.637Z,99.99
2022-08-17T04:26:54.665Z,99.99
2022-08-17T04:27:53.480Z,99.99
2022-08-17T04:28:53.409Z,99.99
2022-08-17T04:29:54.921Z,99.99
2022-08-17T04:30:53.253Z,99.99
2022-08-17T04:31:53.169Z,99.99
2022-08-17T04:33:19.178Z,99.99
2022-08-17T04:33:53.021Z,99.99
2022-08-17T04:34:52.939Z,99.99
2022-08-17T04:35:52.862Z,99.99
2022-08-17T04:36:52.785Z,99.99
2022-08-17T04:37:52.708Z,99.99
2022-08-17T04:38:52.627Z,99.99
2022-08-17T04:39:52.569Z,99.99
2022-08-17T04:40:52.473Z,99.99
2022-08-17T04:41:52.407Z,99.99
2022-08-17T04:42:52.398Z,99.99
2022-08-17T04:43:52.242Z,99.99
2022-08-17T04:44:52.163Z,99.99
2022-08-17T04:45:55.588Z,99.99
2022-08-17T04:46:52.008Z,99.99
2022-08-17T04:47:51.936Z,99.99
2022-08-17T04:48:51.854Z,99.99
2022-08-17T04:49:51.779Z,99.99
2022-08-17T04:50:51.698Z,99.99
2022-08-17T04:51:55.624Z,99.99
2022-08-17T04:52:51.545Z,99.99
2022-08-17T04:53:54.104Z,99.99
2022-08-17T04:54:51.390Z,99.99
2022-08-17T04:55:51.317Z,99.99
2022-08-17T04:56:51.234Z,99.99
2022-08-17T04:57:51.163Z,99.99
2022-08-17T04:58:51.078Z,99.99
2022-08-17T04:59:51.010Z,99.99
2022-08-17T05:00:51.008Z,99.99
2022-08-17T05:01:50.849Z,99.99
2022-08-17T05:02:51.112Z,99.99
2022-08-17T05:03:50.692Z,99.99
2022-08-17T05:04:50.615Z,99.99
2022-08-17T05:05:50.558Z,99.99
2022-08-17T05:06:50.462Z,99.99
2022-08-17T05:07:50.385Z,99.99
2022-08-17T05:08:50.305Z,99.99
2022-08-17T05:09:50.228Z,99.99
2022-08-17T05:10:50.156Z,99.99
2022-08-17T05:11:50.073Z,99.99
2022-08-17T05:12:50.194Z,99.99
2022-08-17T05:13:49.922Z,99.99
2022-08-17T05:14:49.844Z,99.99
2022-08-17T05:15:49.765Z,99.99
2022-08-17T05:16:49.688Z,99.99
2022-08-17T05:17:49.608Z,99.99
2022-08-17T05:18:49.531Z,99.99
2022-08-17T05:19:52.027Z,99.99
2022-08-17T05:20:49.380Z,99.99
2022-08-17T05:21:49.302Z,99.99
2022-08-17T05:22:49.445Z,99.99
2022-08-17T05:23:53.948Z,99.99
2022-08-17T05:24:53.537Z,99.99
2022-08-17T05:25:49.001Z,99.99
2022-08-17T05:26:48.926Z,99.99
2022-08-17T05:27:48.837Z,99.99
2022-08-17T05:28:48.758Z,99.99
2022-08-17T05:29:48.681Z,99.99
2022-08-17T05:30:49.336Z,99.99
2022-08-17T05:31:48.531Z,99.99
2022-08-17T05:32:48.495Z,99.99
2022-08-17T05:33:48.373Z,99.99
2022-08-17T05:34:48.293Z,99.99
2022-08-17T05:35:48.219Z,99.99
2022-08-17T05:36:48.139Z,99.99
2022-08-17T05:37:48.065Z,99.99
2022-08-17T05:38:47.985Z,99.99
2022-08-17T05:39:47.961Z,99.99
2022-08-17T05:40:47.831Z,99.99
2022-08-17T05:41:47.762Z,99.99
2022-08-17T05:42:47.678Z,99.99
2022-08-17T05:43:47.601Z,99.99
2022-08-17T05:44:47.523Z,99.99
2022-08-17T05:45:55.474Z,99.99
2022-08-17T05:46:47.380Z,99.99
2022-08-17T05:47:47.295Z,99.99
2022-08-17T05:48:47.215Z,99.99
2022-08-17T05:49:49.097Z,99.99
2022-08-17T05:50:47.062Z,99.99
2022-08-17T05:51:46.989Z,99.99
2022-08-17T05:52:46.997Z,99.99
2022-08-17T05:53:46.831Z,99.99
2022-08-17T05:54:46.752Z,99.99
2022-08-17T05:55:46.677Z,99.99
2022-08-17T05:56:46.599Z,99.99
2022-08-17T05:57:52.979Z,99.99
2022-08-17T05:58:46.445Z,99.99
2022-08-17T05:59:46.371Z,99.99
2022-08-17T06:00:46.320Z,99.99
2022-08-17T06:01:46.221Z,99.99
2022-08-17T06:02:47.976Z,99.99
2022-08-17T06:03:46.069Z,99.99
2022-08-17T06:04:45.984Z,99.99
2022-08-17T06:05:45.909Z,99.99
2022-08-17T06:06:45.830Z,99.99
2022-08-17T06:07:45.758Z,99.99
2022-08-17T06:08:45.679Z,99.99
2022-08-17T06:09:45.602Z,99.99
2022-08-17T06:10:45.525Z,99.99
2022-08-17T06:11:45.450Z,99.99
2022-08-17T06:12:45.371Z,99.99
2022-08-17T06:13:45.296Z,99.99
2022-08-17T06:14:45.216Z,99.99
2022-08-17T06:15:45.143Z,99.99
2022-08-17T06:16:45.063Z,99.99
2022-08-17T06:17:44.988Z,99.99
2022-08-17T06:18:44.912Z,99.99
2022-08-17T06:19:44.836Z,99.99
2022-08-17T06:20:44.758Z,99.99
2022-08-17T06:21:44.684Z,99.99
2022-08-17T06:22:44.605Z,99.99
2022-08-17T06:23:44.530Z,99.99
2022-08-17T06:24:44.455Z,99.99
2022-08-17T06:25:44.382Z,99.99
2022-08-17T06:26:44.311Z,99.99
2022-08-17T06:27:44.224Z,99.99
2022-08-17T06:28:44.150Z,99.99
2022-08-17T06:29:44.078Z,99.99
2022-08-17T06:30:59.597Z,99.99
2022-08-17T06:31:43.918Z,99.99
2022-08-17T06:32:43.843Z,99.99
2022-08-17T06:33:43.763Z,99.99
2022-08-17T06:34:43.733Z,99.99
2022-08-17T06:35:43.785Z,99.99
2022-08-17T06:36:43.534Z,99.99
2022-08-17T06:37:43.461Z,99.99
2022-08-17T06:38:43.382Z,99.99
2022-08-17T06:39:43.333Z,99.99
2022-08-17T06:40:43.230Z,99.99
2022-08-17T06:41:43.153Z,99.99
2022-08-17T06:43:05.959Z,99.99
2022-08-17T06:43:46.232Z,99.99
2022-08-17T06:44:51.283Z,99.99
2022-08-17T06:45:42.848Z,99.99
2022-08-17T06:46:42.774Z,99.99
2022-08-17T06:47:42.697Z,99.99
2022-08-17T06:48:42.624Z,99.99
2022-08-17T06:49:42.552Z,99.40
2022-08-17T06:50:42.469Z,98.34
2022-08-17T06:51:42.398Z,97.96
2022-08-17T06:52:47.237Z,96.03
2022-08-17T06:53:42.242Z,95.75
2022-08-17T06:54:42.164Z,95.12
2022-08-17T06:55:42.090Z,93.58
2022-08-17T06:56:53.353Z,92.43
2022-08-17T06:57:41.936Z,90.80
2022-08-17T06:58:41.862Z,89.64
2022-08-17T06:59:54.339Z,88.78
2022-08-17T07:00:41.766Z,87.82
2022-08-17T07:01:41.633Z,86.52
2022-08-17T07:02:51.280Z,85.94
2022-08-17T07:03:41.483Z,85.36
2022-08-17T07:04:41.405Z,85.46
2022-08-17T07:05:41.338Z,85.55
2022-08-17T07:06:41.251Z,86.32
2022-08-17T07:07:41.180Z,86.46
2022-08-17T07:08:41.113Z,86.08
2022-08-17T07:09:41.028Z,86.27
2022-08-17T07:10:40.951Z,85.50
2022-08-17T07:11:40.877Z,85.35
2022-08-17T07:12:40.802Z,85.25
2022-08-17T07:13:40.723Z,85.16
2022-08-17T07:14:40.647Z,85.25
2022-08-17T07:15:40.576Z,84.67
2022-08-17T07:16:40.498Z,84.39
2022-08-17T07:17:57.885Z,83.52
2022-08-17T07:18:40.349Z,83.37
2022-08-17T07:19:40.270Z,82.12
2022-08-17T07:20:40.194Z,81.45
2022-08-17T07:21:40.122Z,81.73
2022-08-17T07:22:53.582Z,81.93
2022-08-17T07:23:39.973Z,82.02
2022-08-17T07:24:39.893Z,81.68
2022-08-17T07:25:39.818Z,81.68
2022-08-17T07:26:39.744Z,81.01
2022-08-17T07:27:39.672Z,81.01
2022-08-17T07:28:39.592Z,81.04
2022-08-17T07:29:39.519Z,80.76
2022-08-17T07:30:46.969Z,80.85
2022-08-17T07:31:39.368Z,79.50
2022-08-17T07:32:39.295Z,80.99
2022-08-17T07:33:39.220Z,80.99
2022-08-17T07:34:39.146Z,80.22
2022-08-17T07:35:41.270Z,79.39
2022-08-17T07:36:38.995Z,79.39
2022-08-17T07:37:38.923Z,79.39
2022-08-17T07:38:38.845Z,79.58
2022-08-17T07:40:15.196Z,79.04
2022-08-17T07:40:38.738Z,79.24
2022-08-17T07:41:57.982Z,77.53
2022-08-17T07:42:41.864Z,76.47
2022-08-17T07:43:38.479Z,76.09
2022-08-17T07:44:38.401Z,75.31
2022-08-17T07:45:38.331Z,75.41
2022-08-17T07:46:38.252Z,75.99
2022-08-17T07:47:38.181Z,75.74
2022-08-17T07:48:38.105Z,73.71
2022-08-17T07:49:38.034Z,73.80
2022-08-17T07:50:37.957Z,73.61
2022-08-17T07:51:37.883Z,73.94
2022-08-17T07:52:51.458Z,73.07
2022-08-17T07:53:37.736Z,72.91
2022-08-17T07:54:37.667Z,72.72
2022-08-17T07:55:37.595Z,72.04
2022-08-17T07:56:37.516Z,70.88
2022-08-17T07:57:37.445Z,70.92
2022-08-17T07:58:37.368Z,72.17
2022-08-17T07:59:37.300Z,72.27
2022-08-17T08:00:37.230Z,71.88
2022-08-17T08:01:41.853Z,70.95
2022-08-17T08:02:37.077Z,70.56
2022-08-17T08:03:37.006Z,69.79
2022-08-17T08:04:59.356Z,68.76
2022-08-17T08:05:49.477Z,68.66
2022-08-17T08:06:36.785Z,69.24
2022-08-17T08:07:36.717Z,67.79
2022-08-17T08:08:36.641Z,67.02
2022-08-17T08:09:36.576Z,67.11
2022-08-17T08:10:36.495Z,67.05
2022-08-17T08:11:39.156Z,66.95
2022-08-17T08:12:36.360Z,66.08
2022-08-17T08:13:36.280Z,66.20
2022-08-17T08:14:36.218Z,67.27
2022-08-17T08:15:36.140Z,67.08
2022-08-17T08:16:36.065Z,66.20
2022-08-17T08:17:35.995Z,64.78
2022-08-17T08:18:54.318Z,63.91
2022-08-17T08:19:35.853Z,64.40
2022-08-17T08:20:52.288Z,64.72
2022-08-17T08:21:35.707Z,65.20
2022-08-17T08:22:35.633Z,63.17
2022-08-17T08:23:35.710Z,62.10
2022-08-17T08:24:35.490Z,62.59
2022-08-17T08:25:35.425Z,63.85
2022-08-17T08:26:35.350Z,63.88
2022-08-17T08:27:35.279Z,64.07
2022-08-17T08:28:35.206Z,63.78
2022-08-17T08:29:35.139Z,61.94
2022-08-17T08:30:35.117Z,61.09
2022-08-17T08:31:38.900Z,60.68
2022-08-17T08:32:34.925Z,60.31
2022-08-17T08:33:34.853Z,61.38
2022-08-17T08:34:49.732Z,60.90
2022-08-17T08:35:34.715Z,60.61
2022-08-17T08:37:15.845Z,60.61
2022-08-17T08:37:39.096Z,60.83
2022-08-17T08:38:34.497Z,60.93
2022-08-17T08:39:34.464Z,59.38
2022-08-17T08:40:34.356Z,59.38
2022-08-17T08:41:34.290Z,60.67
2022-08-17T08:42:34.218Z,59.76
2022-08-17T08:43:34.149Z,60.28
2022-08-17T08:45:00.923Z,60.67
2022-08-17T08:45:34.011Z,59.89
2022-08-17T08:46:33.937Z,58.82
2022-08-17T08:47:35.373Z,58.26
2022-08-17T08:48:55.909Z,57.75
2022-08-17T08:50:02.206Z,57.49
2022-08-17T08:50:37.820Z,57.29
2022-08-17T08:51:33.590Z,56.22
2022-08-17T08:52:33.526Z,55.74
2022-08-17T08:53:33.447Z,57.10
2022-08-17T08:54:33.385Z,55.74
2022-08-17T08:55:33.316Z,55.05
2022-08-17T08:56:33.240Z,55.05
2022-08-17T08:57:34.587Z,56.51
2022-08-17T08:58:41.839Z,56.35
2022-08-17T08:59:33.031Z,54.79
2022-08-17T09:00:32.965Z,54.21
2022-08-17T09:01:32.950Z,55.18
2022-08-17T09:02:34.669Z,55.37
2022-08-17T09:03:51.554Z,56.15
2022-08-17T09:04:50.003Z,55.66
2022-08-17T09:05:32.618Z,55.11
2022-08-17T09:06:39.095Z,54.52
2022-08-17T09:07:32.482Z,54.13
2022-08-17T09:08:32.412Z,53.26
2022-08-17T09:09:32.344Z,53.45
2022-08-17T09:10:32.273Z,54.03
2022-08-17T09:11:32.203Z,53.55
2022-08-17T09:12:32.138Z,53.06
2022-08-17T09:13:32.067Z,53.55
2022-08-17T09:14:32.003Z,53.36
2022-08-17T09:15:31.929Z,53.06
2022-08-17T09:16:31.864Z,53.87
2022-08-17T09:17:31.790Z,52.31
2022-08-17T09:19:00.795Z,52.02
2022-08-17T09:19:31.658Z,52.44
2022-08-17T09:20:31.589Z,53.21
2022-08-17T09:21:33.870Z,53.11
2022-08-17T09:22:31.629Z,52.83
2022-08-17T09:23:31.385Z,52.46
2022-08-17T09:24:31.315Z,53.34
2022-08-17T09:25:31.248Z,52.75
2022-08-17T09:26:31.182Z,50.70
2022-08-17T09:27:31.111Z,50.70
2022-08-17T09:28:31.044Z,50.87
2022-08-17T09:29:30.976Z,50.68
2022-08-17T09:30:30.910Z,51.78
2022-08-17T09:31:33.404Z,51.48
2022-08-17T09:32:30.771Z,52.26
2022-08-17T09:33:30.703Z,52.17
2022-08-17T09:34:33.178Z,51.41
2022-08-17T09:35:36.498Z,51.24
2022-08-17T09:36:30.503Z,49.68
2022-08-17T09:37:30.433Z,51.14
2022-08-17T09:38:32.528Z,51.53
2022-08-17T09:39:30.342Z,51.43
2022-08-17T09:40:30.236Z,50.39
2022-08-17T09:41:30.165Z,49.32
2022-08-17T09:42:30.095Z,48.34
2022-08-17T09:43:30.041Z,48.44
2022-08-17T09:44:29.963Z,49.12
2022-08-17T09:45:29.894Z,49.90
2022-08-17T09:46:29.831Z,49.61
2022-08-17T09:47:29.760Z,47.56
2022-08-17T09:48:29.694Z,48.63
2022-08-17T09:49:29.625Z,47.58
2022-08-17T09:50:55.490Z,47.95
2022-08-17T09:51:29.491Z,47.85
2022-08-17T09:52:29.429Z,47.38
2022-08-17T09:53:32.030Z,47.46
2022-08-17T09:54:41.121Z,46.88
2022-08-17T09:55:29.225Z,46.78
2022-08-17T09:56:29.161Z,47.17
2022-08-17T09:57:31.005Z,48.07
2022-08-17T09:58:29.344Z,48.16
2022-08-17T09:59:36.535Z,48.65
2022-08-17T10:00:28.895Z,46.92
2022-08-17T10:01:28.873Z,46.14
2022-08-17T10:02:28.759Z,46.04
2022-08-17T10:03:28.694Z,46.62
2022-08-17T10:04:29.732Z,46.62
2022-08-17T10:05:28.562Z,46.06
2022-08-17T10:06:28.495Z,45.37
2022-08-17T10:07:28.429Z,44.79
2022-08-17T10:08:28.368Z,44.91
2022-08-17T10:09:28.296Z,45.10
2022-08-17T10:10:28.235Z,44.91
2022-08-17T10:11:33.732Z,44.03
2022-08-17T10:12:30.219Z,43.63
2022-08-17T10:13:28.033Z,43.24
2022-08-17T10:14:37.484Z,43.95
2022-08-17T10:15:27.901Z,43.93
2022-08-17T10:16:27.839Z,41.02
2022-08-17T10:17:27.773Z,40.82
2022-08-17T10:18:30.505Z,41.00
2022-08-17T10:19:27.639Z,42.78
2022-08-17T10:20:27.574Z,43.76
2022-08-17T10:21:27.506Z,43.66
2022-08-17T10:22:34.700Z,43.98
2022-08-17T10:23:27.375Z,42.41
2022-08-17T10:24:27.311Z,41.72
2022-08-17T10:25:42.632Z,40.25
2022-08-17T10:26:27.180Z,40.23
2022-08-17T10:27:27.117Z,41.21
2022-08-17T10:28:29.862Z,41.02
2022-08-17T10:29:27.008Z,42.78
2022-08-17T10:30:26.926Z,43.56
2022-08-17T10:31:35.388Z,42.41
2022-08-17T10:32:26.792Z,42.21
2022-08-17T10:33:26.727Z,41.23
2022-08-17T10:34:26.661Z,40.55
2022-08-17T10:35:26.593Z,40.47
2022-08-17T10:36:26.532Z,40.95
2022-08-17T10:37:26.463Z,40.27
2022-08-17T10:38:26.403Z,40.17
2022-08-17T10:39:26.377Z,41.25
2022-08-17T10:40:26.457Z,40.27
2022-08-17T10:41:26.204Z,40.37
2022-08-17T10:42:30.804Z,40.98
2022-08-17T10:43:26.077Z,41.56
2022-08-17T10:44:38.308Z,38.33
2022-08-17T10:45:25.946Z,37.63
2022-08-17T10:46:31.062Z,37.90
2022-08-17T10:47:25.824Z,39.17
2022-08-17T10:48:25.776Z,38.76
2022-08-17T10:49:25.689Z,38.84
2022-08-17T10:50:25.626Z,39.62
2022-08-17T10:51:25.563Z,39.80
2022-08-17T10:52:25.504Z,39.88
2022-08-17T10:53:25.431Z,40.08
2022-08-17T10:54:25.367Z,40.76
2022-08-17T10:55:25.303Z,41.15
2022-08-17T10:56:25.239Z,41.46
2022-08-17T10:57:25.172Z,40.29
2022-08-17T10:58:25.109Z,39.61
2022-08-17T10:59:25.045Z,39.92
2022-08-17T11:00:27.631Z,39.84
2022-08-17T11:01:24.986Z,39.06
2022-08-17T11:02:24.853Z,39.14
2022-08-17T11:03:24.789Z,38.55
2022-08-17T11:04:25.177Z,38.47
2022-08-17T11:05:24.658Z,39.64
2022-08-17T11:06:24.596Z,38.98
2022-08-17T11:07:24.528Z,38.20
2022-08-17T11:08:24.465Z,37.90
2022-08-17T11:09:24.399Z,37.41
2022-08-17T11:10:24.341Z,37.81
2022-08-17T11:11:24.270Z,37.41
2022-08-17T11:12:24.207Z,37.61
2022-08-17T11:13:24.143Z,37.21
2022-08-17T11:14:24.078Z,37.39
2022-08-17T11:15:24.013Z,37.39
2022-08-17T11:16:23.952Z,37.29
2022-08-17T11:17:23.883Z,37.98
2022-08-17T11:18:23.824Z,38.98
2022-08-17T11:19:23.755Z,38.88
2022-08-17T11:20:23.692Z,38.80
2022-08-17T11:21:23.627Z,38.70
2022-08-17T11:22:23.565Z,38.60
2022-08-17T11:23:23.498Z,37.94
2022-08-17T11:24:23.438Z,37.84
2022-08-17T11:25:23.371Z,37.84
2022-08-17T11:26:23.306Z,37.45
2022-08-17T11:27:23.247Z,37.35
2022-08-17T11:28:23.183Z,38.13
2022-08-17T11:29:24.612Z,36.84
2022-08-17T11:30:23.054Z,36.33
2022-08-17T11:31:22.985Z,37.81
2022-08-17T11:32:22.944Z,39.27
2022-08-17T11:33:22.856Z,38.10
2022-08-17T11:34:22.794Z,37.51
2022-08-17T11:35:22.733Z,38.21
2022-08-17T11:36:22.668Z,38.31
2022-08-17T11:37:22.602Z,38.60
2022-08-17T11:38:22.540Z,37.43
2022-08-17T11:39:22.474Z,36.82
2022-08-17T11:40:22.410Z,37.33
2022-08-17T11:41:22.343Z,38.02
2022-08-17T11:42:22.282Z,38.02
2022-08-17T11:43:22.217Z,37.92
2022-08-17T11:44:22.152Z,37.23
2022-08-17T11:45:32.415Z,37.52
2022-08-17T11:46:22.025Z,37.41
2022-08-17T11:47:21.958Z,35.85
2022-08-17T11:48:28.411Z,35.73
2022-08-17T11:49:21.831Z,36.00
2022-08-17T11:50:27.116Z,35.73
2022-08-17T11:51:21.704Z,36.32
2022-08-17T11:52:21.640Z,37.49
2022-08-17T11:53:21.575Z,36.41
2022-08-17T11:54:32.684Z,36.40
2022-08-17T11:55:34.981Z,36.30
2022-08-17T11:56:21.383Z,36.40
2022-08-17T11:57:21.316Z,36.40
2022-08-17T11:58:21.256Z,36.90
2022-08-17T11:59:21.191Z,38.86
2022-08-17T12:00:21.128Z,38.98
2022-08-17T12:01:21.060Z,38.68
2022-08-17T12:02:20.998Z,38.12
2022-08-17T12:03:20.980Z,38.70
2022-08-17T12:04:20.912Z,37.35
2022-08-17T12:05:20.802Z,37.45
2022-08-17T12:06:20.741Z,36.09
2022-08-17T12:07:20.677Z,34.81
2022-08-17T12:08:20.614Z,34.80
2022-08-17T12:09:20.559Z,35.10
2022-08-17T12:10:20.500Z,35.29
2022-08-17T12:11:58.590Z,35.39
2022-08-17T12:12:20.359Z,35.78
2022-08-17T12:13:20.290Z,35.66
2022-08-17T12:14:24.382Z,35.47
2022-08-17T12:15:20.168Z,35.27
2022-08-17T12:16:20.104Z,35.57
2022-08-17T12:17:34.681Z,36.45
2022-08-17T12:18:19.981Z,36.65
2022-08-17T12:19:19.908Z,36.45
2022-08-17T12:20:19.847Z,36.08
2022-08-17T12:21:19.781Z,35.58
2022-08-17T12:22:19.727Z,34.90
2022-08-17T12:23:19.652Z,35.78
2022-08-17T12:24:19.589Z,35.97
2022-08-17T12:25:19.522Z,35.31
2022-08-17T12:26:19.472Z,35.99
2022-08-17T12:27:19.394Z,34.61
2022-08-17T12:28:20.342Z,34.80
2022-08-17T12:29:39.042Z,35.19
2022-08-17T12:30:19.213Z,35.39
2022-08-17T12:31:19.141Z,34.90
2022-08-17T12:32:19.079Z,35.57
2022-08-17T12:33:27.811Z,34.98
2022-08-17T12:34:18.952Z,35.08
2022-08-17T12:35:18.884Z,35.47
2022-08-17T12:36:18.823Z,36.25
2022-08-17T12:37:18.756Z,35.86
2022-08-17T12:38:32.756Z,35.47
2022-08-17T12:39:21.332Z,34.88
2022-08-17T12:40:18.566Z,35.57
2022-08-17T12:41:18.500Z,35.94
2022-08-17T12:42:18.441Z,35.85
2022-08-17T12:43:18.374Z,35.75
2022-08-17T12:44:18.314Z,35.16
2022-08-17T12:45:18.248Z,35.35
2022-08-17T12:46:18.182Z,36.04
2022-08-17T12:47:22.212Z,35.94
2022-08-17T12:48:18.056Z,35.94
2022-08-17T12:49:17.989Z,35.55
2022-08-17T12:50:28.750Z,35.94
2022-08-17T12:51:17.861Z,35.85